createdAt,value
2017-03-20T00:00:16.783Z,93.79
2017-03-20T00:00:57.669Z,94.17
2017-03-20T00:01:38.551Z,94.27
2017-03-20T00:02:19.431Z,94.17
2017-03-20T00:03:00.315Z,94.46
2017-03-20T00:03:41.202Z,94.79
2017-03-20T00:04:22.082Z,94.6
2017-03-20T00:05:02.964Z,94.84
2017-03-20T00:05:43.845Z,95.36
2017-03-20T00:06:24.727Z,95.79
2017-03-20T00:07:05.612Z,96.08
2017-03-20T00:07:46.497Z,96.08
2017-03-20T00:08:27.380Z,95.7
2017-03-20T00:09:08.267Z,95.7
2017-03-20T00:09:49.149Z,96.27
2017-03-20T00:10:30.030Z,95.79
2017-03-20T00:11:10.912Z,95.89
2017-03-20T00:11:51.795Z,95.98
2017-03-20T00:12:32.675Z,96.17
2017-03-20T00:13:13.557Z,96.17
2017-03-20T00:13:54.444Z,95.89
2017-03-20T00:14:35.333Z,95.98
2017-03-20T00:15:16.215Z,95.89
2017-03-20T00:15:57.094Z,96.27
2017-03-20T00:16:37.980Z,95.7
2017-03-20T00:17:18.862Z,95.98
2017-03-20T00:17:59.751Z,96.08
2017-03-20T00:18:40.627Z,95.41
2017-03-20T00:19:21.513Z,95.98
2017-03-20T00:20:02.397Z,94.84
2017-03-20T00:20:43.282Z,95.03
2017-03-20T00:21:24.164Z,95.03
2017-03-20T00:22:05.047Z,95.12
2017-03-20T00:22:45.932Z,95.7
2017-03-20T00:23:26.817Z,95.98
2017-03-20T00:24:07.697Z,95.22
2017-03-20T00:24:48.579Z,94.84
2017-03-20T00:25:29.466Z,94.84
2017-03-20T00:26:10.350Z,94.84
2017-03-20T00:26:51.229Z,95.22
2017-03-20T00:27:32.104Z,94.84
2017-03-20T00:28:12.988Z,95.89
2017-03-20T00:28:53.873Z,96.08
2017-03-20T00:29:34.773Z,96.27
2017-03-20T00:30:15.652Z,96.17
2017-03-20T00:30:56.542Z,95.98
2017-03-20T00:31:37.426Z,96.27
2017-03-20T00:32:18.316Z,96.27
2017-03-20T00:32:59.205Z,95.79
2017-03-20T00:33:40.096Z,96.36
2017-03-20T00:34:20.976Z,95.89
2017-03-20T00:35:01.856Z,95.98
2017-03-20T00:35:42.786Z,95.98
2017-03-20T00:36:23.627Z,96.36
2017-03-20T00:37:04.505Z,95.7
2017-03-20T00:37:45.384Z,95.89
2017-03-20T00:38:26.271Z,95.6
2017-03-20T00:39:07.159Z,95.12
2017-03-20T00:39:48.043Z,95.03
2017-03-20T00:40:28.915Z,94.56
2017-03-20T00:41:09.811Z,95.22
2017-03-20T00:41:50.695Z,95.6
2017-03-20T00:42:31.605Z,95.03
2017-03-20T00:43:12.453Z,95.12
2017-03-20T00:43:53.336Z,95.22
2017-03-20T00:44:34.221Z,95.22
2017-03-20T00:45:15.104Z,95.22
2017-03-20T00:45:55.986Z,94.74
2017-03-20T00:46:36.865Z,94.84
2017-03-20T00:47:17.750Z,94.65
2017-03-20T00:47:58.638Z,94.65
2017-03-20T00:48:39.518Z,94.79
2017-03-20T00:49:20.409Z,94.84
2017-03-20T00:50:01.294Z,95.03
2017-03-20T00:50:42.172Z,95.22
2017-03-20T00:51:23.053Z,95.03
2017-03-20T00:52:03.937Z,95.51
2017-03-20T00:52:44.825Z,94.79
2017-03-20T00:53:25.711Z,95.22
2017-03-20T00:54:06.590Z,95.22
2017-03-20T00:54:47.477Z,95.22
2017-03-20T00:55:28.353Z,94.93
2017-03-20T00:56:09.260Z,96.08
2017-03-20T00:56:50.143Z,95.79
2017-03-20T00:57:31.036Z,95.89
2017-03-20T00:58:11.919Z,95.89
2017-03-20T00:58:52.801Z,95.6
2017-03-20T00:59:33.686Z,95.7
2017-03-20T01:00:14.571Z,95.6
2017-03-20T01:00:55.454Z,94.84
2017-03-20T01:01:36.339Z,95.12
2017-03-20T01:02:17.223Z,95.22
2017-03-20T01:02:58.113Z,95.03
2017-03-20T01:03:38.993Z,95.32
2017-03-20T01:04:19.874Z,95.03
2017-03-20T01:05:00.762Z,94.93
2017-03-20T01:05:41.650Z,94.93
2017-03-20T01:06:22.532Z,95.22
2017-03-20T01:07:03.416Z,94.93
2017-03-20T01:07:44.301Z,95.98
2017-03-20T01:08:25.168Z,95.7
2017-03-20T01:09:06.055Z,96.55
2017-03-20T01:09:46.941Z,96.27
2017-03-20T01:10:27.818Z,96.55
2017-03-20T01:11:08.692Z,96.55
2017-03-20T01:11:49.574Z,96.46
2017-03-20T01:12:30.458Z,96.65
2017-03-20T01:13:11.347Z,96.46
2017-03-20T01:13:52.235Z,97.31
2017-03-20T01:14:33.151Z,97.03
2017-03-20T01:15:13.999Z,97.31
2017-03-20T01:15:54.887Z,97.31
2017-03-20T01:16:35.769Z,96.65
2017-03-20T01:17:16.652Z,96.65
2017-03-20T01:17:57.533Z,96.65
2017-03-20T01:18:38.428Z,96.46
2017-03-20T01:19:19.314Z,96.46
2017-03-20T01:20:00.203Z,96.46
2017-03-20T01:20:41.088Z,97.22
2017-03-20T01:21:21.974Z,97.51
2017-03-20T01:22:02.858Z,97.13
2017-03-20T01:22:43.742Z,97.22
2017-03-20T01:23:24.621Z,97.13
2017-03-20T01:24:05.509Z,97.03
2017-03-20T01:24:46.387Z,96.84
2017-03-20T01:25:27.268Z,96.65
2017-03-20T01:26:08.152Z,96.27
2017-03-20T01:26:49.038Z,95.79
2017-03-20T01:27:29.921Z,95.79
2017-03-20T01:28:10.805Z,95.98
2017-03-20T01:28:51.687Z,95.79
2017-03-20T01:29:32.570Z,95.7
2017-03-20T01:30:13.437Z,95.6
2017-03-20T01:30:54.321Z,95.03
2017-03-20T01:31:35.206Z,95.6
2017-03-20T01:32:16.097Z,95.89
2017-03-20T01:32:56.978Z,95.98
2017-03-20T01:33:37.869Z,95.79
2017-03-20T01:34:18.754Z,96.65
2017-03-20T01:34:59.637Z,96.84
2017-03-20T01:35:40.520Z,96.46
2017-03-20T01:36:21.404Z,96.08
2017-03-20T01:37:02.287Z,96.46
2017-03-20T01:37:43.170Z,95.79
2017-03-20T01:38:24.056Z,95.89
2017-03-20T01:39:04.939Z,95.89
2017-03-20T01:39:45.821Z,95.79
2017-03-20T01:40:26.701Z,96.27
2017-03-20T01:41:07.581Z,95.98
2017-03-20T01:41:48.471Z,95.98
2017-03-20T01:42:29.349Z,95.6
2017-03-20T01:43:10.229Z,96.08
2017-03-20T01:43:51.116Z,95.03
2017-03-20T01:44:32.005Z,94.93
2017-03-20T01:45:12.886Z,94.84
2017-03-20T01:45:53.774Z,94.51
2017-03-20T01:46:34.655Z,95.08
2017-03-20T01:47:15.541Z,94.08
2017-03-20T01:47:56.425Z,94.22
2017-03-20T01:48:37.302Z,94.08
2017-03-20T01:49:18.167Z,94.32
2017-03-20T01:49:59.060Z,93.89
2017-03-20T01:50:39.952Z,94.56
2017-03-20T01:51:20.838Z,94.89
2017-03-20T01:52:01.717Z,94.93
2017-03-20T01:52:42.607Z,93.89
2017-03-20T01:53:23.494Z,94.08
2017-03-20T01:54:04.375Z,94.46
2017-03-20T01:54:45.258Z,93.89
2017-03-20T01:55:26.160Z,94.13
2017-03-20T01:57:24.883Z,93.79
2017-03-20T01:58:05.767Z,94.08
2017-03-20T01:58:46.660Z,94.46
2017-03-20T01:59:27.546Z,94.17
2017-03-20T02:00:08.423Z,93.89
2017-03-20T02:00:49.308Z,94.22
2017-03-20T02:01:30.181Z,93.65
2017-03-20T02:02:11.061Z,94.7
2017-03-20T02:02:51.934Z,94.27
2017-03-20T02:03:32.813Z,94.08
2017-03-20T02:04:13.700Z,93.93
2017-03-20T02:04:54.576Z,94.56
2017-03-20T02:05:35.457Z,94.46
2017-03-20T02:06:16.336Z,94.32
2017-03-20T02:06:57.215Z,94.27
2017-03-20T02:07:38.093Z,94.65
2017-03-20T02:08:18.979Z,94.22
2017-03-20T02:08:59.857Z,94.22
2017-03-20T02:09:40.742Z,94.51
2017-03-20T02:10:21.625Z,94.46
2017-03-20T02:11:02.512Z,95.12
2017-03-20T02:11:43.433Z,94.65
2017-03-20T02:12:24.271Z,94.17
2017-03-20T02:13:05.143Z,95.03
2017-03-20T02:13:46.041Z,95.12
2017-03-20T02:14:26.930Z,95.03
2017-03-20T02:15:07.806Z,94.84
2017-03-20T02:15:48.695Z,95.12
2017-03-20T02:16:29.581Z,95.03
2017-03-20T02:17:10.465Z,94.93
2017-03-20T02:17:51.345Z,94.65
2017-03-20T02:18:32.229Z,94.93
2017-03-20T02:19:13.121Z,94.84
2017-03-20T02:19:53.989Z,95.03
2017-03-20T02:20:34.876Z,95.03
2017-03-20T02:21:15.761Z,94.93
2017-03-20T02:21:56.653Z,95.03
2017-03-20T02:22:37.532Z,94.84
2017-03-20T02:23:18.410Z,94.37
2017-03-20T02:23:59.301Z,93.79
2017-03-20T02:24:40.213Z,93.98
2017-03-20T02:25:21.072Z,93.98
2017-03-20T02:26:01.949Z,93.79
2017-03-20T02:26:42.832Z,93.6
2017-03-20T02:27:23.719Z,93.89
2017-03-20T02:28:04.595Z,93.89
2017-03-20T02:28:45.480Z,92.94
2017-03-20T02:29:26.362Z,93.22
2017-03-20T02:30:07.251Z,93.22
2017-03-20T02:30:48.134Z,93.13
2017-03-20T02:31:29.008Z,93.22
2017-03-20T02:32:09.894Z,93.22
2017-03-20T02:32:50.782Z,93.79
2017-03-20T02:33:31.675Z,94.27
2017-03-20T02:34:12.565Z,94.08
2017-03-20T02:34:53.449Z,95.03
2017-03-20T02:35:34.336Z,95.12
2017-03-20T02:36:15.218Z,93.98
2017-03-20T02:36:56.098Z,94.27
2017-03-20T02:37:36.988Z,94.46
2017-03-20T02:38:17.868Z,94.37
2017-03-20T02:38:58.752Z,93.89
2017-03-20T02:39:39.636Z,92.74
2017-03-20T02:40:20.521Z,93.13
2017-03-20T02:41:01.403Z,93.22
2017-03-20T02:41:42.287Z,93.13
2017-03-20T02:42:23.167Z,93.22
2017-03-20T02:43:04.053Z,93.03
2017-03-20T02:43:44.943Z,92.84
2017-03-20T02:44:25.830Z,92.65
2017-03-20T02:45:06.707Z,92.74
2017-03-20T02:45:47.598Z,93.03
2017-03-20T02:46:28.485Z,92.84
2017-03-20T02:47:09.372Z,92.94
2017-03-20T02:47:50.263Z,92.84
2017-03-20T02:48:31.164Z,93.32
2017-03-20T02:49:12.052Z,92.84
2017-03-20T02:49:52.937Z,93.03
2017-03-20T02:50:33.827Z,93.41
2017-03-20T02:51:14.701Z,93.13
2017-03-20T02:51:55.588Z,93.22
2017-03-20T02:52:36.494Z,93.03
2017-03-20T02:53:17.368Z,93.22
2017-03-20T02:53:58.235Z,93.03
2017-03-20T02:54:39.114Z,93.22
2017-03-20T02:55:20.006Z,93.03
2017-03-20T02:56:00.891Z,93.03
2017-03-20T02:56:41.771Z,93.32
2017-03-20T02:57:22.646Z,93.22
2017-03-20T02:58:03.540Z,93.13
2017-03-20T02:58:44.419Z,92.84
2017-03-20T02:59:25.295Z,93.22
2017-03-20T03:00:06.160Z,93.13
2017-03-20T03:00:47.047Z,93.13
2017-03-20T03:01:27.934Z,93.22
2017-03-20T03:02:08.818Z,93.13
2017-03-20T03:02:49.689Z,93.13
2017-03-20T03:03:30.578Z,93.13
2017-03-20T03:04:11.460Z,93.22
2017-03-20T03:04:52.342Z,93.79
2017-03-20T03:05:33.222Z,93.41
2017-03-20T03:06:14.111Z,93.79
2017-03-20T03:06:55.000Z,94.08
2017-03-20T03:07:35.885Z,94.08
2017-03-20T03:08:16.765Z,93.7
2017-03-20T03:08:57.648Z,93.51
2017-03-20T03:09:38.526Z,93.13
2017-03-20T03:10:19.411Z,93.13
2017-03-20T03:11:00.283Z,93.03
2017-03-20T03:11:41.169Z,93.32
2017-03-20T03:12:22.062Z,93.03
2017-03-20T03:13:02.940Z,93.13
2017-03-20T03:13:43.825Z,93.13
2017-03-20T03:14:24.707Z,93.32
2017-03-20T03:15:05.601Z,92.84
2017-03-20T03:15:46.483Z,93.03
2017-03-20T03:16:27.367Z,92.84
2017-03-20T03:17:08.255Z,92.74
2017-03-20T03:17:49.140Z,92.36
2017-03-20T03:18:30.027Z,92.46
2017-03-20T03:19:10.919Z,92.74
2017-03-20T03:19:51.809Z,93.03
2017-03-20T03:20:32.695Z,93.03
2017-03-20T03:21:13.576Z,93.13
2017-03-20T03:21:54.461Z,93.51
2017-03-20T03:22:35.353Z,93.22
2017-03-20T03:23:16.241Z,93.41
2017-03-20T03:23:57.129Z,93.03
2017-03-20T03:24:38.017Z,93.13
2017-03-20T03:25:18.899Z,93.41
2017-03-20T03:25:59.786Z,93.51
2017-03-20T03:26:40.673Z,93.32
2017-03-20T03:27:21.569Z,93.22
2017-03-20T03:28:02.450Z,93.22
2017-03-20T03:28:43.339Z,92.84
2017-03-20T03:29:24.221Z,93.22
2017-03-20T03:30:05.103Z,93.13
2017-03-20T03:30:45.988Z,93.22
2017-03-20T03:31:26.875Z,92.84
2017-03-20T03:32:07.765Z,93.51
2017-03-20T03:32:48.656Z,93.22
2017-03-20T03:33:29.543Z,94.08
2017-03-20T03:34:10.430Z,93.98
2017-03-20T03:34:51.316Z,93.98
2017-03-20T03:35:32.204Z,93.51
2017-03-20T03:36:13.092Z,93.03
2017-03-20T03:36:53.972Z,93.13
2017-03-20T03:37:34.849Z,93.13
2017-03-20T03:38:15.728Z,93.41
2017-03-20T03:38:56.614Z,93.03
2017-03-20T03:39:37.514Z,92.55
2017-03-20T03:40:18.396Z,92.08
2017-03-20T03:40:59.270Z,92.65
2017-03-20T03:41:40.142Z,92.74
2017-03-20T03:42:21.042Z,93.13
2017-03-20T03:43:01.917Z,93.13
2017-03-20T03:43:42.797Z,93.32
2017-03-20T03:44:23.681Z,93.22
2017-03-20T03:45:04.569Z,93.41
2017-03-20T03:45:45.451Z,92.94
2017-03-20T03:46:26.365Z,92.84
2017-03-20T03:47:07.251Z,92.74
2017-03-20T03:47:48.128Z,92.84
2017-03-20T03:48:29.005Z,92.46
2017-03-20T03:49:09.881Z,93.03
2017-03-20T03:49:50.763Z,93.03
2017-03-20T03:50:31.653Z,93.13
2017-03-20T03:51:12.539Z,93.22
2017-03-20T03:51:53.426Z,93.13
2017-03-20T03:52:34.315Z,93.32
2017-03-20T03:53:15.198Z,93.03
2017-03-20T03:53:56.081Z,92.18
2017-03-20T03:54:36.965Z,91.6
2017-03-20T03:55:17.851Z,92.18
2017-03-20T03:55:58.743Z,92.27
2017-03-20T03:56:39.626Z,92.08
2017-03-20T03:57:20.540Z,91.6
2017-03-20T03:58:01.436Z,91.7
2017-03-20T03:58:42.334Z,91.89
2017-03-20T03:59:23.234Z,91.99
2017-03-20T04:00:04.105Z,91.99
2017-03-20T04:00:44.986Z,91.89
2017-03-20T04:01:25.866Z,91.41
2017-03-20T04:02:06.752Z,91.6
2017-03-20T04:02:47.635Z,92.08
2017-03-20T04:03:28.519Z,92.18
2017-03-20T04:04:09.405Z,92.18
2017-03-20T04:04:50.284Z,92.18
2017-03-20T04:05:31.172Z,92.36
2017-03-20T04:06:12.051Z,91.89
2017-03-20T04:06:52.936Z,92.08
2017-03-20T04:07:33.821Z,91.7
2017-03-20T04:08:14.703Z,91.99
2017-03-20T04:08:55.584Z,91.99
2017-03-20T04:09:36.486Z,91.51
2017-03-20T04:10:17.360Z,92.27
2017-03-20T04:10:58.247Z,91.6
2017-03-20T04:11:39.143Z,91.7
2017-03-20T04:12:20.027Z,91.79
2017-03-20T04:13:00.910Z,91.7
2017-03-20T04:13:41.792Z,91.74
2017-03-20T04:14:22.682Z,91.7
2017-03-20T04:15:03.565Z,92.08
2017-03-20T04:15:44.442Z,91.99
2017-03-20T04:16:25.322Z,91.6
2017-03-20T04:17:06.213Z,91.7
2017-03-20T04:17:47.100Z,92.18
2017-03-20T04:18:27.979Z,91.99
2017-03-20T04:19:08.862Z,91.7
2017-03-20T04:19:49.749Z,91.6
2017-03-20T04:20:30.630Z,91.7
2017-03-20T04:21:11.535Z,91.89
2017-03-20T04:21:52.425Z,92.46
2017-03-20T04:22:33.319Z,92.27
2017-03-20T04:23:14.210Z,91.89
2017-03-20T04:23:55.100Z,91.99
2017-03-20T04:24:35.996Z,92.08
2017-03-20T04:25:16.882Z,92.55
2017-03-20T04:25:57.775Z,92.27
2017-03-20T04:26:38.660Z,92.65
2017-03-20T04:27:19.540Z,92.55
2017-03-20T04:28:00.420Z,92.84
2017-03-20T04:28:41.307Z,92.46
2017-03-20T04:29:22.189Z,92.74
2017-03-20T04:30:03.070Z,92.74
2017-03-20T04:30:43.952Z,92.74
2017-03-20T04:31:24.834Z,92.36
2017-03-20T04:32:05.718Z,91.89
2017-03-20T04:32:46.605Z,91.89
2017-03-20T04:33:27.491Z,92.36
2017-03-20T04:34:08.376Z,92.84
2017-03-20T04:34:49.267Z,93.03
2017-03-20T04:35:30.156Z,92.55
2017-03-20T04:36:11.038Z,93.03
2017-03-20T04:36:51.920Z,92.41
2017-03-20T04:37:32.805Z,91.84
2017-03-20T04:38:13.693Z,92.18
2017-03-20T04:38:54.577Z,91.99
2017-03-20T04:39:35.460Z,92.65
2017-03-20T04:40:16.346Z,92.65
2017-03-20T04:40:57.231Z,92.46
2017-03-20T04:41:38.118Z,92.65
2017-03-20T04:42:18.998Z,92.08
2017-03-20T04:42:59.886Z,91.94
2017-03-20T04:43:40.774Z,92.13
2017-03-20T04:44:21.682Z,91.99
2017-03-20T04:45:02.581Z,92.36
2017-03-20T04:45:43.460Z,92.36
2017-03-20T04:46:24.347Z,91.79
2017-03-20T04:47:05.232Z,92.08
2017-03-20T04:47:46.117Z,92.08
2017-03-20T04:48:27.000Z,91.99
2017-03-20T04:49:07.880Z,91.79
2017-03-20T04:49:48.763Z,92.36
2017-03-20T04:50:29.647Z,92.27
2017-03-20T04:51:10.526Z,92.46
2017-03-20T04:51:51.414Z,91.99
2017-03-20T04:52:32.294Z,92.46
2017-03-20T04:53:13.178Z,92.84
2017-03-20T04:53:54.062Z,92.55
2017-03-20T04:54:34.937Z,92.55
2017-03-20T04:55:15.820Z,93.03
2017-03-20T04:55:56.711Z,92.27
2017-03-20T04:56:37.599Z,92.18
2017-03-20T04:57:18.477Z,91.79
2017-03-20T04:57:59.364Z,92.13
2017-03-20T04:58:40.245Z,91.99
2017-03-20T04:59:21.131Z,92.18
2017-03-20T05:00:02.015Z,92.32
2017-03-20T05:00:42.892Z,92.27
2017-03-20T05:01:23.777Z,92.36
2017-03-20T05:02:04.663Z,91.79
2017-03-20T05:02:45.548Z,92.03
2017-03-20T05:03:26.425Z,91.84
2017-03-20T05:04:07.316Z,92.32
2017-03-20T05:04:48.195Z,92.46
2017-03-20T05:05:29.081Z,92.03
2017-03-20T05:06:09.968Z,91.99
2017-03-20T05:06:50.851Z,92.32
2017-03-20T05:07:31.748Z,92.32
2017-03-20T05:08:12.624Z,91.74
2017-03-20T05:08:53.525Z,91.84
2017-03-20T05:09:34.429Z,91.7
2017-03-20T05:10:15.313Z,91.65
2017-03-20T05:10:56.203Z,91.65
2017-03-20T05:11:37.084Z,91.84
2017-03-20T05:12:17.963Z,92.22
2017-03-20T05:12:58.855Z,91.65
2017-03-20T05:13:39.746Z,91.65
2017-03-20T05:14:20.638Z,92.08
2017-03-20T05:15:01.505Z,92.5
2017-03-20T05:15:42.394Z,92.03
2017-03-20T05:16:23.285Z,91.74
2017-03-20T05:17:04.165Z,91.74
2017-03-20T05:17:45.044Z,92.32
2017-03-20T05:18:25.929Z,91.79
2017-03-20T05:19:06.819Z,91.74
2017-03-20T05:19:47.701Z,91.74
2017-03-20T05:20:28.587Z,91.84
2017-03-20T05:21:09.482Z,91.89
2017-03-20T05:21:50.365Z,92.08
2017-03-20T05:22:31.253Z,91.89
2017-03-20T05:23:12.130Z,92.32
2017-03-20T05:23:53.036Z,92.27
2017-03-20T05:24:33.967Z,92.5
2017-03-20T05:25:14.850Z,91.89
2017-03-20T05:25:55.746Z,92.36
2017-03-20T05:26:36.642Z,92.46
2017-03-20T05:27:17.537Z,91.79
2017-03-20T05:27:58.405Z,91.55
2017-03-20T05:28:39.285Z,91.84
2017-03-20T05:29:20.175Z,91.84
2017-03-20T05:30:01.062Z,91.65
2017-03-20T05:30:41.944Z,91.74
2017-03-20T05:31:22.830Z,91.74
2017-03-20T05:32:03.712Z,91.51
2017-03-20T05:32:44.604Z,92.03
2017-03-20T05:33:25.483Z,92.27
2017-03-20T05:34:06.362Z,92.13
2017-03-20T05:34:47.248Z,92.13
2017-03-20T05:35:28.146Z,92.41
2017-03-20T05:36:09.033Z,91.74
2017-03-20T05:36:49.917Z,91.55
2017-03-20T05:37:30.799Z,91.74
2017-03-20T05:38:11.688Z,91.65
2017-03-20T05:38:52.568Z,91.65
2017-03-20T05:39:33.451Z,91.65
2017-03-20T05:40:14.337Z,91.27
2017-03-20T05:40:55.222Z,91.65
2017-03-20T05:41:36.108Z,91.46
2017-03-20T05:42:16.998Z,91.46
2017-03-20T05:42:57.888Z,91.27
2017-03-20T05:43:38.773Z,90.98
2017-03-20T05:44:19.655Z,90.98
2017-03-20T05:45:00.541Z,91.08
2017-03-20T05:45:41.417Z,91.17
2017-03-20T05:46:22.307Z,90.98
2017-03-20T05:47:03.183Z,91.17
2017-03-20T05:47:44.075Z,91.17
2017-03-20T05:48:24.952Z,90.98
2017-03-20T05:49:05.818Z,91.46
2017-03-20T05:49:46.700Z,91.27
2017-03-20T05:50:27.590Z,91.94
2017-03-20T05:51:08.483Z,91.6
2017-03-20T05:51:49.362Z,91.46
2017-03-20T05:52:30.250Z,91.27
2017-03-20T05:53:11.149Z,91.17
2017-03-20T05:53:52.024Z,91.27
2017-03-20T05:54:32.914Z,91.17
2017-03-20T05:55:13.834Z,91.36
2017-03-20T05:55:54.718Z,91.94
2017-03-20T05:56:35.608Z,91.65
2017-03-20T05:57:16.498Z,91.84
2017-03-20T05:57:57.379Z,91.36
2017-03-20T05:58:38.253Z,91.36
2017-03-20T05:59:19.157Z,91.84
2017-03-20T06:00:00.045Z,91.65
2017-03-20T06:00:40.930Z,91.84
2017-03-20T06:01:21.820Z,91.46
2017-03-20T06:02:02.718Z,91.36
2017-03-20T06:04:01.567Z,91.65
2017-03-20T06:04:42.450Z,91.17
2017-03-20T06:05:23.334Z,90.89
2017-03-20T06:06:04.216Z,91.17
2017-03-20T06:06:45.101Z,91.46
2017-03-20T06:07:25.984Z,91.27
2017-03-20T06:08:06.867Z,91.27
2017-03-20T06:08:47.753Z,91.27
2017-03-20T06:09:28.638Z,91.17
2017-03-20T06:10:09.531Z,92.03
2017-03-20T06:10:50.399Z,91.55
2017-03-20T06:11:31.282Z,91.65
2017-03-20T06:12:12.165Z,91.74
2017-03-20T06:12:53.052Z,92.22
2017-03-20T06:13:33.934Z,92.32
2017-03-20T06:14:14.849Z,92.13
2017-03-20T06:14:55.725Z,92.13
2017-03-20T06:15:36.611Z,93.08
2017-03-20T06:16:17.496Z,93.08
2017-03-20T06:16:58.381Z,93.08
2017-03-20T06:17:39.273Z,93.08
2017-03-20T06:18:20.157Z,92.79
2017-03-20T06:19:01.040Z,92.41
2017-03-20T06:19:41.921Z,92.69
2017-03-20T06:20:22.809Z,93.41
2017-03-20T06:21:03.692Z,93.22
2017-03-20T06:21:44.617Z,93.89
2017-03-20T06:22:25.465Z,94.32
2017-03-20T06:23:06.388Z,94.08
2017-03-20T06:23:47.271Z,94.13
2017-03-20T06:24:28.160Z,94.08
2017-03-20T06:25:09.046Z,94.41
2017-03-20T06:25:49.931Z,93.84
2017-03-20T06:26:30.816Z,94.32
2017-03-20T06:27:11.702Z,94.37
2017-03-20T06:27:52.619Z,94.08
2017-03-20T06:28:33.520Z,94.46
2017-03-20T06:29:14.403Z,93.93
2017-03-20T06:29:55.336Z,94.08
2017-03-20T06:30:36.215Z,94.13
2017-03-20T06:31:17.106Z,93.93
2017-03-20T06:31:57.993Z,93.98
2017-03-20T06:32:38.876Z,94.22
2017-03-20T06:33:19.750Z,94.37
2017-03-20T06:34:00.638Z,93.79
2017-03-20T06:34:41.520Z,93.89
2017-03-20T06:35:22.400Z,94.37
2017-03-20T06:36:03.284Z,94.27
2017-03-20T06:36:44.167Z,94.08
2017-03-20T06:37:25.051Z,94.56
2017-03-20T06:38:05.932Z,94.08
2017-03-20T06:38:46.814Z,94.46
2017-03-20T06:39:27.700Z,94.37
2017-03-20T06:40:08.595Z,94.56
2017-03-20T06:40:49.481Z,94.22
2017-03-20T06:41:30.365Z,94.08
2017-03-20T06:42:11.259Z,94.46
2017-03-20T06:42:52.147Z,94.89
2017-03-20T06:43:33.030Z,94.51
2017-03-20T06:45:12.368Z,94.41
2017-03-20T06:45:53.255Z,94.89
2017-03-20T06:46:34.142Z,94.13
2017-03-20T06:47:15.026Z,95.27
2017-03-20T06:47:55.911Z,94.32
2017-03-20T06:48:36.790Z,93.93
2017-03-20T06:49:17.682Z,94.13
2017-03-20T06:49:58.573Z,94.7
2017-03-20T06:50:39.437Z,94.79
2017-03-20T06:51:20.339Z,94.13
2017-03-20T06:52:01.228Z,94.89
2017-03-20T06:52:42.121Z,94.13
2017-03-20T06:53:22.999Z,94.41
2017-03-20T06:54:03.891Z,94.22
2017-03-20T06:54:44.778Z,94.51
2017-03-20T06:55:25.666Z,94.22
2017-03-20T06:56:06.550Z,94.98
2017-03-20T06:56:47.435Z,94.6
2017-03-20T06:57:28.317Z,94.13
2017-03-20T06:58:09.187Z,94.32
2017-03-20T06:58:50.073Z,94.51
2017-03-20T06:59:30.959Z,93.93
2017-03-20T07:00:11.848Z,93.84
2017-03-20T07:00:52.733Z,93.93
2017-03-20T07:01:33.655Z,94.51
2017-03-20T07:02:14.539Z,94.32
2017-03-20T07:02:55.430Z,94.51
2017-03-20T07:03:36.310Z,94.41
2017-03-20T07:04:17.194Z,94.51
2017-03-20T07:04:58.073Z,94.6
2017-03-20T07:05:38.958Z,95.27
2017-03-20T07:06:19.846Z,95.17
2017-03-20T07:07:00.733Z,96.12
2017-03-20T07:07:41.616Z,95.84
2017-03-20T07:08:22.497Z,96.55
2017-03-20T07:09:03.380Z,96.22
2017-03-20T07:09:44.261Z,96.46
2017-03-20T07:10:25.150Z,96.6
2017-03-20T07:11:06.041Z,96.22
2017-03-20T07:11:46.942Z,96.22
2017-03-20T07:12:27.820Z,96.32
2017-03-20T07:13:08.710Z,96.6
2017-03-20T07:13:49.590Z,96.51
2017-03-20T07:14:30.470Z,96.51
2017-03-20T07:15:11.350Z,96.51
2017-03-20T07:15:52.235Z,96.32
2017-03-20T07:16:33.121Z,96.7
2017-03-20T07:17:14.004Z,96.22
2017-03-20T07:17:54.893Z,95.84
2017-03-20T07:18:35.768Z,96.03
2017-03-20T07:19:16.654Z,95.08
2017-03-20T07:19:57.539Z,94.98
2017-03-20T07:20:38.423Z,95.36
2017-03-20T07:21:19.306Z,94.7
2017-03-20T07:22:00.195Z,95.36
2017-03-20T07:22:41.089Z,95.08
2017-03-20T07:23:21.974Z,94.89
2017-03-20T07:24:02.882Z,94.7
2017-03-20T07:24:43.758Z,95.17
2017-03-20T07:25:24.651Z,96.03
2017-03-20T07:26:05.543Z,96.51
2017-03-20T07:26:46.423Z,96.51
2017-03-20T07:27:27.301Z,96.7
2017-03-20T07:28:08.186Z,96.7
2017-03-20T07:28:49.072Z,96.6
2017-03-20T07:29:29.953Z,96.98
2017-03-20T07:30:10.837Z,96.32
2017-03-20T07:30:51.723Z,96.8
2017-03-20T07:31:32.609Z,96.32
2017-03-20T07:32:13.494Z,96.32
2017-03-20T07:32:54.370Z,96.22
2017-03-20T07:33:35.283Z,95.65
2017-03-20T07:34:16.169Z,95.84
2017-03-20T07:34:57.052Z,95.94
2017-03-20T07:35:37.944Z,95.75
2017-03-20T07:36:18.844Z,96.41
2017-03-20T07:36:59.713Z,96.32
2017-03-20T07:37:40.603Z,95.46
2017-03-20T07:38:21.490Z,95.84
2017-03-20T07:39:02.373Z,94.89
2017-03-20T07:39:43.256Z,94.41
2017-03-20T07:40:24.144Z,93.88
2017-03-20T07:41:05.023Z,92.65
2017-03-20T07:41:46.024Z,92.08
2017-03-20T07:42:26.905Z,92.27
2017-03-20T07:43:07.788Z,92.46
2017-03-20T07:43:48.672Z,91.69
2017-03-20T07:44:29.557Z,91.88
2017-03-20T07:45:10.446Z,91.22
2017-03-20T07:45:51.329Z,90.64
2017-03-20T07:46:32.211Z,91.5
2017-03-20T07:47:13.099Z,91.03
2017-03-20T07:47:53.980Z,91.88
2017-03-20T07:48:34.868Z,90.22
2017-03-20T07:49:15.752Z,88.98
2017-03-20T07:49:56.646Z,89.45
2017-03-20T07:50:37.529Z,87.83
2017-03-20T07:51:18.436Z,88.69
2017-03-20T07:51:59.329Z,88.98
2017-03-20T07:52:40.213Z,88.12
2017-03-20T07:53:21.098Z,87.35
2017-03-20T07:54:01.984Z,88.4
2017-03-20T07:54:42.893Z,89.17
2017-03-20T07:55:23.774Z,89.17
2017-03-20T07:56:04.656Z,88.84
2017-03-20T07:56:45.541Z,89.6
2017-03-20T07:57:26.416Z,88.4
2017-03-20T07:58:07.286Z,87.35
2017-03-20T07:58:48.165Z,87.54
2017-03-20T07:59:29.050Z,87.54
2017-03-20T08:00:09.934Z,88.59
2017-03-20T08:00:50.833Z,88.4
2017-03-20T08:01:31.722Z,88.4
2017-03-20T08:02:12.605Z,86.88
2017-03-20T08:02:53.469Z,86.21
2017-03-20T08:03:34.353Z,87.45
2017-03-20T08:04:15.235Z,86.88
2017-03-20T08:04:56.118Z,87.74
2017-03-20T08:05:37.006Z,88.69
2017-03-20T08:06:17.884Z,87.74
2017-03-20T08:06:58.770Z,87.64
2017-03-20T08:07:39.649Z,88.12
2017-03-20T08:08:20.535Z,87.45
2017-03-20T08:09:01.418Z,86.69
2017-03-20T08:09:42.296Z,86.88
2017-03-20T08:10:23.176Z,86.78
2017-03-20T08:11:04.122Z,85.64
2017-03-20T08:11:45.030Z,86.3
2017-03-20T08:12:25.920Z,85.49
2017-03-20T08:13:06.816Z,85.49
2017-03-20T08:13:47.717Z,84.82
2017-03-20T08:14:28.600Z,84.63
2017-03-20T08:15:09.490Z,85.11
2017-03-20T08:15:50.378Z,85.64
2017-03-20T08:16:31.266Z,86.59
2017-03-20T08:17:12.145Z,85.54
2017-03-20T08:17:53.032Z,85.25
2017-03-20T08:18:33.923Z,85.35
2017-03-20T08:19:14.814Z,86.02
2017-03-20T08:19:55.706Z,86.49
2017-03-20T08:20:36.867Z,87.54
2017-03-20T08:21:17.749Z,87.69
2017-03-20T08:21:58.632Z,87.79
2017-03-20T08:22:39.518Z,87.79
2017-03-20T08:23:20.432Z,88.64
2017-03-20T08:24:01.312Z,87.79
2017-03-20T08:24:42.193Z,87.98
2017-03-20T08:25:23.108Z,88.55
2017-03-20T08:26:03.991Z,87.79
2017-03-20T08:26:44.874Z,88.07
2017-03-20T08:27:25.763Z,88.74
2017-03-20T08:28:06.688Z,89.03
2017-03-20T08:28:47.536Z,88.17
2017-03-20T08:29:28.436Z,88.17
2017-03-20T08:30:09.334Z,89.22
2017-03-20T08:30:50.223Z,88.84
2017-03-20T08:31:31.133Z,88.36
2017-03-20T08:32:12.025Z,88.45
2017-03-20T08:32:52.915Z,88.55
2017-03-20T08:33:33.802Z,87.98
2017-03-20T08:34:14.689Z,87.98
2017-03-20T08:34:55.573Z,88.26
2017-03-20T08:35:36.466Z,88.36
2017-03-20T08:36:17.350Z,88.45
2017-03-20T08:36:58.273Z,88.07
2017-03-20T08:37:39.125Z,88.07
2017-03-20T08:38:20.015Z,88.36
2017-03-20T08:39:00.897Z,87.79
2017-03-20T08:39:41.778Z,88.17
2017-03-20T08:40:22.661Z,87.26
2017-03-20T08:41:03.545Z,87.4
2017-03-20T08:41:44.444Z,88.02
2017-03-20T08:42:25.334Z,87.45
2017-03-20T08:43:06.222Z,87.64
2017-03-20T08:43:47.103Z,88.21
2017-03-20T08:44:27.988Z,88.45
2017-03-20T08:45:08.867Z,87.83
2017-03-20T08:45:49.753Z,87.54
2017-03-20T08:46:30.633Z,87.64
2017-03-20T08:47:12.108Z,87.5
2017-03-20T08:47:54.859Z,87.5
2017-03-20T08:48:36.444Z,88.21
2017-03-20T08:49:17.338Z,87.26
2017-03-20T08:49:58.220Z,87.64
2017-03-20T08:50:39.107Z,87.54
2017-03-20T08:51:20.005Z,87.16